sensor_id;sensor_type;location;lat;lon;timestamp;P1;durP1;ratioP1;P2;durP2;ratioP2
12228;SDS011;6177;52.402;9.800;2023-08-17T00:02:36;1.98;;;1.70;;
12228;SDS011;6177;52.402;9.800;2023-08-17T00:05:27;2.70;;;1.67;;
12228;SDS011;6177;52.402;9.800;2023-08-17T00:08:17;1.85;;;1.48;;
12228;SDS011;6177;52.402;9.800;2023-08-17T00:11:09;2.50;;;1.40;;
12228;SDS011;6177;52.402;9.800;2023-08-17T00:13:59;1.73;;;1.50;;
12228;SDS011;6177;52.402;9.800;2023-08-17T00:16:51;4.10;;;1.60;;
12228;SDS011;6177;52.402;9.800;2023-08-17T00:19:41;2.03;;;1.52;;
12228;SDS011;6177;52.402;9.800;2023-08-17T00:22:32;3.10;;;1.58;;
12228;SDS011;6177;52.402;9.800;2023-08-17T00:25:23;2.58;;;1.58;;
12228;SDS011;6177;52.402;9.800;2023-08-17T00:28:15;3.50;;;1.23;;
12228;SDS011;6177;52.402;9.800;2023-08-17T00:31:05;2.85;;;1.52;;
12228;SDS011;6177;52.402;9.800;2023-08-17T00:33:56;2.95;;;1.42;;
12228;SDS011;6177;52.402;9.800;2023-08-17T00:36:47;1.80;;;1.67;;
12228;SDS011;6177;52.402;9.800;2023-08-17T00:39:38;1.67;;;1.50;;
12228;SDS011;6177;52.402;9.800;2023-08-17T00:42:29;1.85;;;1.63;;
12228;SDS011;6177;52.402;9.800;2023-08-17T00:45:21;2.45;;;1.40;;
12228;SDS011;6177;52.402;9.800;2023-08-17T00:48:12;3.08;;;1.52;;
12228;SDS011;6177;52.402;9.800;2023-08-17T00:51:03;1.55;;;1.45;;
12228;SDS011;6177;52.402;9.800;2023-08-17T00:53:54;3.55;;;1.85;;
12228;SDS011;6177;52.402;9.800;2023-08-17T00:56:47;3.42;;;2.03;;
12228;SDS011;6177;52.402;9.800;2023-08-17T00:59:37;2.45;;;1.70;;
12228;SDS011;6177;52.402;9.800;2023-08-17T01:02:29;2.55;;;1.70;;
12228;SDS011;6177;52.402;9.800;2023-08-17T01:05:21;2.70;;;1.67;;
12228;SDS011;6177;52.402;9.800;2023-08-17T01:08:12;6.05;;;2.05;;
12228;SDS011;6177;52.402;9.800;2023-08-17T01:11:19;4.65;;;2.15;;
12228;SDS011;6177;52.402;9.800;2023-08-17T01:14:22;3.17;;;1.48;;
12228;SDS011;6177;52.402;9.800;2023-08-17T01:18:04;2.08;;;1.80;;
12228;SDS011;6177;52.402;9.800;2023-08-17T01:20:34;2.22;;;1.95;;
12228;SDS011;6177;52.402;9.800;2023-08-17T01:23:25;3.30;;;2.00;;
12228;SDS011;6177;52.402;9.800;2023-08-17T01:26:16;3.78;;;2.33;;
12228;SDS011;6177;52.402;9.800;2023-08-17T01:29:07;3.28;;;2.00;;
12228;SDS011;6177;52.402;9.800;2023-08-17T01:34:58;5.30;;;2.35;;
12228;SDS011;6177;52.402;9.800;2023-08-17T01:37:52;2.65;;;2.08;;
12228;SDS011;6177;52.402;9.800;2023-08-17T01:40:44;6.07;;;2.22;;
12228;SDS011;6177;52.402;9.800;2023-08-17T01:43:36;4.70;;;2.40;;
12228;SDS011;6177;52.402;9.800;2023-08-17T01:46:31;2.50;;;2.30;;
12228;SDS011;6177;52.402;9.800;2023-08-17T01:49:23;3.72;;;3.10;;
12228;SDS011;6177;52.402;9.800;2023-08-17T01:52:15;4.35;;;2.83;;
12228;SDS011;6177;52.402;9.800;2023-08-17T01:55:05;3.80;;;2.80;;
12228;SDS011;6177;52.402;9.800;2023-08-17T01:57:56;4.75;;;3.05;;
12228;SDS011;6177;52.402;9.800;2023-08-17T02:00:47;5.30;;;3.20;;
12228;SDS011;6177;52.402;9.800;2023-08-17T02:03:39;6.78;;;3.70;;
12228;SDS011;6177;52.402;9.800;2023-08-17T02:06:29;3.63;;;3.25;;
12228;SDS011;6177;52.402;9.800;2023-08-17T02:09:21;4.43;;;3.42;;
12228;SDS011;6177;52.402;9.800;2023-08-17T02:12:11;3.78;;;2.97;;
12228;SDS011;6177;52.402;9.800;2023-08-17T02:15:01;4.00;;;3.47;;
12228;SDS011;6177;52.402;9.800;2023-08-17T02:17:53;6.57;;;3.13;;
12228;SDS011;6177;52.402;9.800;2023-08-17T02:20:43;3.60;;;3.05;;
12228;SDS011;6177;52.402;9.800;2023-08-17T02:23:36;3.53;;;3.33;;
12228;SDS011;6177;52.402;9.800;2023-08-17T02:26:26;3.20;;;2.90;;
12228;SDS011;6177;52.402;9.800;2023-08-17T02:29:18;5.60;;;3.65;;
12228;SDS011;6177;52.402;9.800;2023-08-17T02:32:09;3.83;;;3.22;;
12228;SDS011;6177;52.402;9.800;2023-08-17T02:35:01;4.93;;;3.30;;
12228;SDS011;6177;52.402;9.800;2023-08-17T02:37:51;4.65;;;3.90;;
12228;SDS011;6177;52.402;9.800;2023-08-17T02:40:43;4.68;;;3.63;;
12228;SDS011;6177;52.402;9.800;2023-08-17T02:43:34;3.97;;;3.65;;
12228;SDS011;6177;52.402;9.800;2023-08-17T02:46:25;3.95;;;3.42;;
12228;SDS011;6177;52.402;9.800;2023-08-17T02:49:16;4.53;;;3.50;;
12228;SDS011;6177;52.402;9.800;2023-08-17T02:52:06;4.88;;;3.42;;
12228;SDS011;6177;52.402;9.800;2023-08-17T02:54:56;4.80;;;3.45;;
12228;SDS011;6177;52.402;9.800;2023-08-17T02:57:47;3.97;;;3.53;;
12228;SDS011;6177;52.402;9.800;2023-08-17T03:00:38;4.20;;;3.85;;
12228;SDS011;6177;52.402;9.800;2023-08-17T03:03:28;4.03;;;3.72;;
12228;SDS011;6177;52.402;9.800;2023-08-17T03:06:19;3.88;;;3.58;;
12228;SDS011;6177;52.402;9.800;2023-08-17T03:09:10;3.92;;;3.30;;
12228;SDS011;6177;52.402;9.800;2023-08-17T03:12:02;3.65;;;3.35;;
12228;SDS011;6177;52.402;9.800;2023-08-17T03:14:53;4.25;;;3.58;;
12228;SDS011;6177;52.402;9.800;2023-08-17T03:17:43;6.50;;;3.47;;
12228;SDS011;6177;52.402;9.800;2023-08-17T03:20:35;3.80;;;3.15;;
12228;SDS011;6177;52.402;9.800;2023-08-17T03:23:26;4.30;;;3.90;;
12228;SDS011;6177;52.402;9.800;2023-08-17T03:26:16;5.43;;;3.70;;
12228;SDS011;6177;52.402;9.800;2023-08-17T03:29:08;3.88;;;3.55;;
12228;SDS011;6177;52.402;9.800;2023-08-17T03:32:00;3.78;;;3.58;;
12228;SDS011;6177;52.402;9.800;2023-08-17T03:34:52;4.22;;;4.03;;
12228;SDS011;6177;52.402;9.800;2023-08-17T03:37:42;4.43;;;4.13;;
12228;SDS011;6177;52.402;9.800;2023-08-17T03:40:34;4.00;;;3.80;;
12228;SDS011;6177;52.402;9.800;2023-08-17T03:43:27;4.40;;;4.00;;
12228;SDS011;6177;52.402;9.800;2023-08-17T03:46:17;4.35;;;3.95;;
12228;SDS011;6177;52.402;9.800;2023-08-17T03:49:07;3.97;;;3.67;;
12228;SDS011;6177;52.402;9.800;2023-08-17T03:52:00;4.18;;;3.38;;
12228;SDS011;6177;52.402;9.800;2023-08-17T03:54:52;4.15;;;3.85;;
12228;SDS011;6177;52.402;9.800;2023-08-17T03:57:43;3.25;;;3.15;;
12228;SDS011;6177;52.402;9.800;2023-08-17T04:00:34;4.88;;;4.53;;
12228;SDS011;6177;52.402;9.800;2023-08-17T04:03:24;3.72;;;3.53;;
12228;SDS011;6177;52.402;9.800;2023-08-17T04:06:15;3.63;;;3.42;;
12228;SDS011;6177;52.402;9.800;2023-08-17T04:09:06;3.65;;;3.40;;
12228;SDS011;6177;52.402;9.800;2023-08-17T04:11:57;3.95;;;3.75;;
12228;SDS011;6177;52.402;9.800;2023-08-17T04:14:49;3.72;;;3.53;;
12228;SDS011;6177;52.402;9.800;2023-08-17T04:17:40;3.55;;;3.35;;
12228;SDS011;6177;52.402;9.800;2023-08-17T04:20:31;3.72;;;3.47;;
12228;SDS011;6177;52.402;9.800;2023-08-17T04:23:22;3.45;;;3.28;;
12228;SDS011;6177;52.402;9.800;2023-08-17T04:26:13;4.00;;;3.70;;
12228;SDS011;6177;52.402;9.800;2023-08-17T04:29:03;3.83;;;3.53;;
12228;SDS011;6177;52.402;9.800;2023-08-17T04:31:55;4.63;;;4.22;;
12228;SDS011;6177;52.402;9.800;2023-08-17T04:34:46;3.88;;;3.67;;
12228;SDS011;6177;52.402;9.800;2023-08-17T04:37:38;3.65;;;3.55;;
12228;SDS011;6177;52.402;9.800;2023-08-17T04:40:29;4.00;;;3.80;;
12228;SDS011;6177;52.402;9.800;2023-08-17T04:43:21;4.15;;;4.00;;
12228;SDS011;6177;52.402;9.800;2023-08-17T04:46:12;4.50;;;4.20;;
12228;SDS011;6177;52.402;9.800;2023-08-17T04:49:04;4.57;;;4.20;;
12228;SDS011;6177;52.402;9.800;2023-08-17T04:51:56;4.00;;;3.80;;
12228;SDS011;6177;52.402;9.800;2023-08-17T04:54:46;4.43;;;3.90;;
12228;SDS011;6177;52.402;9.800;2023-08-17T04:57:37;4.63;;;4.30;;
12228;SDS011;6177;52.402;9.800;2023-08-17T05:00:30;4.47;;;4.07;;
12228;SDS011;6177;52.402;9.800;2023-08-17T05:03:22;7.20;;;4.45;;
12228;SDS011;6177;52.402;9.800;2023-08-17T05:06:13;4.57;;;4.18;;
12228;SDS011;6177;52.402;9.800;2023-08-17T05:09:04;5.47;;;4.55;;
12228;SDS011;6177;52.402;9.800;2023-08-17T05:11:54;5.18;;;4.78;;
12228;SDS011;6177;52.402;9.800;2023-08-17T05:14:45;4.40;;;4.20;;
12228;SDS011;6177;52.402;9.800;2023-08-17T05:17:36;3.80;;;3.60;;
12228;SDS011;6177;52.402;9.800;2023-08-17T05:20:27;4.28;;;4.00;;
12228;SDS011;6177;52.402;9.800;2023-08-17T05:23:17;3.92;;;3.72;;
12228;SDS011;6177;52.402;9.800;2023-08-17T05:26:09;4.32;;;3.97;;
12228;SDS011;6177;52.402;9.800;2023-08-17T05:28:59;4.07;;;3.88;;
12228;SDS011;6177;52.402;9.800;2023-08-17T05:31:50;4.13;;;3.95;;
12228;SDS011;6177;52.402;9.800;2023-08-17T05:34:43;4.03;;;3.75;;
12228;SDS011;6177;52.402;9.800;2023-08-17T05:37:37;4.68;;;4.38;;
12228;SDS011;6177;52.402;9.800;2023-08-17T05:40:31;3.95;;;3.75;;
12228;SDS011;6177;52.402;9.800;2023-08-17T05:43:23;3.90;;;3.70;;
12228;SDS011;6177;52.402;9.800;2023-08-17T05:46:15;4.03;;;3.83;;
12228;SDS011;6177;52.402;9.800;2023-08-17T05:49:05;4.57;;;4.28;;
12228;SDS011;6177;52.402;9.800;2023-08-17T05:51:56;5.80;;;5.30;;
12228;SDS011;6177;52.402;9.800;2023-08-17T05:54:47;4.38;;;4.07;;
12228;SDS011;6177;52.402;9.800;2023-08-17T05:57:38;4.18;;;3.88;;
12228;SDS011;6177;52.402;9.800;2023-08-17T06:00:29;3.63;;;3.50;;
12228;SDS011;6177;52.402;9.800;2023-08-17T06:03:19;4.57;;;4.28;;
12228;SDS011;6177;52.402;9.800;2023-08-17T06:06:11;3.67;;;3.47;;
12228;SDS011;6177;52.402;9.800;2023-08-17T06:09:02;3.85;;;3.67;;
12228;SDS011;6177;52.402;9.800;2023-08-17T06:11:53;3.95;;;3.67;;
12228;SDS011;6177;52.402;9.800;2023-08-17T06:14:44;4.03;;;3.83;;
12228;SDS011;6177;52.402;9.800;2023-08-17T06:17:35;3.78;;;3.47;;
12228;SDS011;6177;52.402;9.800;2023-08-17T06:20:26;3.70;;;3.60;;
12228;SDS011;6177;52.402;9.800;2023-08-17T06:23:17;4.22;;;3.92;;
12228;SDS011;6177;52.402;9.800;2023-08-17T06:26:08;3.83;;;3.63;;
12228;SDS011;6177;52.402;9.800;2023-08-17T06:28:59;3.40;;;3.20;;
12228;SDS011;6177;52.402;9.800;2023-08-17T06:31:50;3.75;;;3.40;;
12228;SDS011;6177;52.402;9.800;2023-08-17T06:34:41;3.13;;;3.03;;
12228;SDS011;6177;52.402;9.800;2023-08-17T06:37:33;3.55;;;3.45;;
12228;SDS011;6177;52.402;9.800;2023-08-17T06:40:24;3.67;;;3.47;;
12228;SDS011;6177;52.402;9.800;2023-08-17T06:43:15;3.45;;;3.35;;
12228;SDS011;6177;52.402;9.800;2023-08-17T06:46:06;4.72;;;3.40;;
12228;SDS011;6177;52.402;9.800;2023-08-17T06:48:57;3.55;;;3.35;;
12228;SDS011;6177;52.402;9.800;2023-08-17T06:51:47;3.55;;;3.35;;
12228;SDS011;6177;52.402;9.800;2023-08-17T06:54:39;3.38;;;3.17;;
12228;SDS011;6177;52.402;9.800;2023-08-17T06:57:29;3.80;;;3.58;;
12228;SDS011;6177;52.402;9.800;2023-08-17T07:00:22;3.60;;;3.40;;
12228;SDS011;6177;52.402;9.800;2023-08-17T07:03:13;3.53;;;3.40;;
12228;SDS011;6177;52.402;9.800;2023-08-17T07:06:04;3.58;;;3.38;;
12228;SDS011;6177;52.402;9.800;2023-08-17T07:08:55;3.90;;;3.70;;
12228;SDS011;6177;52.402;9.800;2023-08-17T07:11:46;3.65;;;3.42;;
12228;SDS011;6177;52.402;9.800;2023-08-17T07:14:38;4.00;;;3.53;;
12228;SDS011;6177;52.402;9.800;2023-08-17T07:17:29;3.17;;;3.08;;
12228;SDS011;6177;52.402;9.800;2023-08-17T07:20:20;3.67;;;3.38;;
12228;SDS011;6177;52.402;9.800;2023-08-17T07:23:11;3.30;;;3.00;;
12228;SDS011;6177;52.402;9.800;2023-08-17T07:26:02;3.08;;;2.97;;
12228;SDS011;6177;52.402;9.800;2023-08-17T07:28:53;3.47;;;3.28;;
12228;SDS011;6177;52.402;9.800;2023-08-17T07:31:47;3.35;;;3.15;;
12228;SDS011;6177;52.402;9.800;2023-08-17T07:34:38;3.10;;;3.00;;
12228;SDS011;6177;52.402;9.800;2023-08-17T07:37:29;3.75;;;3.55;;
12228;SDS011;6177;52.402;9.800;2023-08-17T07:40:24;3.72;;;3.42;;
12228;SDS011;6177;52.402;9.800;2023-08-17T07:43:15;3.33;;;3.22;;
12228;SDS011;6177;52.402;9.800;2023-08-17T07:46:06;3.67;;;3.38;;
12228;SDS011;6177;52.402;9.800;2023-08-17T07:48:57;3.58;;;3.28;;
12228;SDS011;6177;52.402;9.800;2023-08-17T07:51:48;3.45;;;3.35;;
12228;SDS011;6177;52.402;9.800;2023-08-17T07:54:39;3.15;;;2.95;;
12228;SDS011;6177;52.402;9.800;2023-08-17T07:57:30;3.17;;;3.08;;
12228;SDS011;6177;52.402;9.800;2023-08-17T08:00:21;3.42;;;3.28;;
12228;SDS011;6177;52.402;9.800;2023-08-17T08:03:12;3.45;;;3.35;;
12228;SDS011;6177;52.402;9.800;2023-08-17T08:06:03;3.13;;;2.92;;
12228;SDS011;6177;52.402;9.800;2023-08-17T08:08:54;3.22;;;3.13;;
12228;SDS011;6177;52.402;9.800;2023-08-17T08:11:45;3.33;;;3.05;;
12228;SDS011;6177;52.402;9.800;2023-08-17T08:14:36;3.17;;;2.97;;
12228;SDS011;6177;52.402;9.800;2023-08-17T08:17:27;3.05;;;2.95;;
12228;SDS011;6177;52.402;9.800;2023-08-17T08:20:18;3.05;;;2.95;;
12228;SDS011;6177;52.402;9.800;2023-08-17T08:23:10;3.20;;;3.10;;
12228;SDS011;6177;52.402;9.800;2023-08-17T08:26:02;3.08;;;2.90;;
12228;SDS011;6177;52.402;9.800;2023-08-17T08:28:53;3.20;;;3.00;;
12228;SDS011;6177;52.402;9.800;2023-08-17T08:31:44;3.33;;;3.05;;
12228;SDS011;6177;52.402;9.800;2023-08-17T08:34:35;2.92;;;2.72;;
12228;SDS011;6177;52.402;9.800;2023-08-17T08:37:26;2.70;;;2.60;;
12228;SDS011;6177;52.402;9.800;2023-08-17T08:40:17;3.58;;;2.95;;
12228;SDS011;6177;52.402;9.800;2023-08-17T08:43:08;2.30;;;2.20;;
12228;SDS011;6177;52.402;9.800;2023-08-17T08:46:00;2.55;;;2.45;;
12228;SDS011;6177;52.402;9.800;2023-08-17T08:48:51;3.05;;;2.95;;
12228;SDS011;6177;52.402;9.800;2023-08-17T08:51:44;3.13;;;2.92;;
12228;SDS011;6177;52.402;9.800;2023-08-17T08:54:35;2.92;;;2.83;;
12228;SDS011;6177;52.402;9.800;2023-08-17T08:57:26;3.28;;;3.17;;
12228;SDS011;6177;52.402;9.800;2023-08-17T09:00:19;2.40;;;2.30;;
12228;SDS011;6177;52.402;9.800;2023-08-17T09:03:10;2.10;;;2.10;;
12228;SDS011;6177;52.402;9.800;2023-08-17T09:06:01;1.88;;;1.77;;
12228;SDS011;6177;52.402;9.800;2023-08-17T09:08:52;1.52;;;1.50;;
12228;SDS011;6177;52.402;9.800;2023-08-17T09:11:42;1.75;;;1.65;;
12228;SDS011;6177;52.402;9.800;2023-08-17T09:14:33;2.58;;;1.90;;
12228;SDS011;6177;52.402;9.800;2023-08-17T09:17:24;1.70;;;1.70;;
12228;SDS011;6177;52.402;9.800;2023-08-17T09:23:32;1.80;;;1.70;;
12228;SDS011;6177;52.402;9.800;2023-08-17T09:26:23;1.67;;;1.65;;
12228;SDS011;6177;52.402;9.800;2023-08-17T09:29:17;1.65;;;1.65;;
12228;SDS011;6177;52.402;9.800;2023-08-17T09:32:09;1.70;;;1.70;;
12228;SDS011;6177;52.402;9.800;2023-08-17T09:35:01;1.55;;;1.45;;
12228;SDS011;6177;52.402;9.800;2023-08-17T09:37:53;1.30;;;1.30;;
12228;SDS011;6177;52.402;9.800;2023-08-17T09:40:44;1.45;;;1.45;;
12228;SDS011;6177;52.402;9.800;2023-08-17T09:43:36;1.40;;;1.40;;
12228;SDS011;6177;52.402;9.800;2023-08-17T09:46:27;1.48;;;1.48;;
12228;SDS011;6177;52.402;9.800;2023-08-17T09:49:18;1.52;;;1.50;;
12228;SDS011;6177;52.402;9.800;2023-08-17T09:52:09;1.73;;;1.63;;
12228;SDS011;6177;52.402;9.800;2023-08-17T09:55:01;1.52;;;1.50;;
12228;SDS011;6177;52.402;9.800;2023-08-17T09:57:54;1.45;;;1.45;;
12228;SDS011;6177;52.402;9.800;2023-08-17T10:00:47;1.60;;;1.60;;
12228;SDS011;6177;52.402;9.800;2023-08-17T10:03:39;1.42;;;1.40;;
12228;SDS011;6177;52.402;9.800;2023-08-17T10:06:33;1.63;;;1.63;;
12228;SDS011;6177;52.402;9.800;2023-08-17T10:09:25;1.92;;;1.83;;
12228;SDS011;6177;52.402;9.800;2023-08-17T10:12:23;1.70;;;1.60;;
12228;SDS011;6177;52.402;9.800;2023-08-17T10:15:18;1.50;;;1.50;;
12228;SDS011;6177;52.402;9.800;2023-08-17T10:24:41;1.25;;;1.25;;
12228;SDS011;6177;52.402;9.800;2023-08-17T10:27:33;1.98;;;1.88;;
12228;SDS011;6177;52.402;9.800;2023-08-17T10:30:25;1.60;;;1.50;;
12228;SDS011;6177;52.402;9.800;2023-08-17T10:33:16;1.40;;;1.30;;
12228;SDS011;6177;52.402;9.800;2023-08-17T10:36:07;1.48;;;1.38;;
12228;SDS011;6177;52.402;9.800;2023-08-17T10:42:31;1.40;;;1.40;;
12228;SDS011;6177;52.402;9.800;2023-08-17T10:45:30;1.20;;;1.20;;
12228;SDS011;6177;52.402;9.800;2023-08-17T10:48:25;1.40;;;1.40;;
12228;SDS011;6177;52.402;9.800;2023-08-17T10:51:17;1.50;;;1.50;;
12228;SDS011;6177;52.402;9.800;2023-08-17T10:54:14;1.92;;;1.48;;
12228;SDS011;6177;52.402;9.800;2023-08-17T11:03:22;1.80;;;1.70;;
12228;SDS011;6177;52.402;9.800;2023-08-17T11:06:13;2.03;;;1.77;;
12228;SDS011;6177;52.402;9.800;2023-08-17T11:09:06;2.28;;;1.95;;
12228;SDS011;6177;52.402;9.800;2023-08-17T11:11:58;1.92;;;1.90;;
12228;SDS011;6177;52.402;9.800;2023-08-17T11:14:50;1.88;;;1.88;;
12228;SDS011;6177;52.402;9.800;2023-08-17T11:17:41;2.25;;;1.98;;
12228;SDS011;6177;52.402;9.800;2023-08-17T11:20:32;1.88;;;1.73;;
12228;SDS011;6177;52.402;9.800;2023-08-17T11:23:23;3.13;;;2.92;;
12228;SDS011;6177;52.402;9.800;2023-08-17T11:26:17;2.10;;;1.92;;
12228;SDS011;6177;52.402;9.800;2023-08-17T11:29:09;1.45;;;1.40;;
12228;SDS011;6177;52.402;9.800;2023-08-17T11:32:00;2.00;;;1.88;;
12228;SDS011;6177;52.402;9.800;2023-08-17T11:34:51;2.20;;;2.10;;
12228;SDS011;6177;52.402;9.800;2023-08-17T11:37:41;2.22;;;2.10;;
12228;SDS011;6177;52.402;9.800;2023-08-17T11:40:34;1.67;;;1.67;;
12228;SDS011;6177;52.402;9.800;2023-08-17T11:43:25;2.03;;;1.90;;
12228;SDS011;6177;52.402;9.800;2023-08-17T11:46:15;2.50;;;2.40;;
12228;SDS011;6177;52.402;9.800;2023-08-17T11:49:06;2.35;;;2.13;;
12228;SDS011;6177;52.402;9.800;2023-08-17T11:51:56;1.92;;;1.77;;
12228;SDS011;6177;52.402;9.800;2023-08-17T11:54:47;1.63;;;1.60;;
12228;SDS011;6177;52.402;9.800;2023-08-17T11:57:38;1.90;;;1.80;;
12228;SDS011;6177;52.402;9.800;2023-08-17T12:00:33;1.63;;;1.52;;
12228;SDS011;6177;52.402;9.800;2023-08-17T12:03:26;2.13;;;2.03;;
12228;SDS011;6177;52.402;9.800;2023-08-17T12:06:17;2.88;;;2.78;;
12228;SDS011;6177;52.402;9.800;2023-08-17T12:09:08;1.80;;;1.70;;
12228;SDS011;6177;52.402;9.800;2023-08-17T12:11:59;2.42;;;2.22;;
12228;SDS011;6177;52.402;9.800;2023-08-17T12:14:50;2.08;;;1.85;;
12228;SDS011;6177;52.402;9.800;2023-08-17T12:17:48;4.68;;;1.90;;
12228;SDS011;6177;52.402;9.800;2023-08-17T12:20:39;1.60;;;1.60;;
12228;SDS011;6177;52.402;9.800;2023-08-17T12:23:31;2.00;;;1.90;;
12228;SDS011;6177;52.402;9.800;2023-08-17T12:26:23;2.03;;;1.80;;
12228;SDS011;6177;52.402;9.800;2023-08-17T12:29:14;2.08;;;1.90;;
12228;SDS011;6177;52.402;9.800;2023-08-17T12:32:05;1.88;;;1.77;;
12228;SDS011;6177;52.402;9.800;2023-08-17T12:34:57;2.33;;;2.20;;
12228;SDS011;6177;52.402;9.800;2023-08-17T12:37:48;2.00;;;2.00;;
12228;SDS011;6177;52.402;9.800;2023-08-17T12:40:39;2.30;;;2.20;;
12228;SDS011;6177;52.402;9.800;2023-08-17T12:43:30;1.95;;;1.85;;
12228;SDS011;6177;52.402;9.800;2023-08-17T12:46:21;2.00;;;1.90;;
12228;SDS011;6177;52.402;9.800;2023-08-17T12:49:12;2.20;;;2.10;;
12228;SDS011;6177;52.402;9.800;2023-08-17T12:52:03;2.50;;;2.40;;
12228;SDS011;6177;52.402;9.800;2023-08-17T12:54:54;2.00;;;1.90;;
12228;SDS011;6177;52.402;9.800;2023-08-17T12:57:45;2.17;;;2.03;;
12228;SDS011;6177;52.402;9.800;2023-08-17T13:00:36;1.73;;;1.73;;
12228;SDS011;6177;52.402;9.800;2023-08-17T13:03:27;1.58;;;1.58;;
12228;SDS011;6177;52.402;9.800;2023-08-17T13:06:18;2.28;;;2.08;;
12228;SDS011;6177;52.402;9.800;2023-08-17T13:09:09;1.75;;;1.65;;
12228;SDS011;6177;52.402;9.800;2023-08-17T13:12:01;2.00;;;1.90;;
12228;SDS011;6177;52.402;9.800;2023-08-17T13:14:52;2.55;;;2.45;;
12228;SDS011;6177;52.402;9.800;2023-08-17T13:17:43;2.45;;;2.35;;
12228;SDS011;6177;52.402;9.800;2023-08-17T13:20:34;1.60;;;1.60;;
12228;SDS011;6177;52.402;9.800;2023-08-17T13:23:26;1.80;;;1.80;;
12228;SDS011;6177;52.402;9.800;2023-08-17T13:26:17;1.80;;;1.70;;
12228;SDS011;6177;52.402;9.800;2023-08-17T13:29:08;3.03;;;1.90;;
12228;SDS011;6177;52.402;9.800;2023-08-17T13:32:00;1.75;;;1.65;;
12228;SDS011;6177;52.402;9.800;2023-08-17T13:34:51;2.00;;;2.00;;
12228;SDS011;6177;52.402;9.800;2023-08-17T13:37:42;2.00;;;2.00;;
12228;SDS011;6177;52.402;9.800;2023-08-17T13:40:33;1.73;;;1.73;;
12228;SDS011;6177;52.402;9.800;2023-08-17T13:43:24;1.50;;;1.40;;
12228;SDS011;6177;52.402;9.800;2023-08-17T13:46:15;1.83;;;1.73;;
12228;SDS011;6177;52.402;9.800;2023-08-17T13:49:06;2.13;;;2.03;;
12228;SDS011;6177;52.402;9.800;2023-08-17T13:51:57;1.60;;;1.60;;
12228;SDS011;6177;52.402;9.800;2023-08-17T13:54:48;1.85;;;1.70;;
12228;SDS011;6177;52.402;9.800;2023-08-17T13:57:40;3.13;;;1.70;;
12228;SDS011;6177;52.402;9.800;2023-08-17T14:00:31;1.50;;;1.50;;
12228;SDS011;6177;52.402;9.800;2023-08-17T14:03:22;1.70;;;1.70;;
12228;SDS011;6177;52.402;9.800;2023-08-17T14:06:13;1.90;;;1.90;;
12228;SDS011;6177;52.402;9.800;2023-08-17T14:09:04;1.75;;;1.65;;
12228;SDS011;6177;52.402;9.800;2023-08-17T14:11:55;1.75;;;1.65;;
12228;SDS011;6177;52.402;9.800;2023-08-17T14:14:46;2.20;;;2.10;;
12228;SDS011;6177;52.402;9.800;2023-08-17T14:17:37;1.98;;;1.98;;
12228;SDS011;6177;52.402;9.800;2023-08-17T14:20:28;1.92;;;1.83;;
12228;SDS011;6177;52.402;9.800;2023-08-17T14:23:19;3.33;;;2.03;;
12228;SDS011;6177;52.402;9.800;2023-08-17T14:26:10;2.53;;;2.42;;
12228;SDS011;6177;52.402;9.800;2023-08-17T14:29:01;2.85;;;2.42;;
12228;SDS011;6177;52.402;9.800;2023-08-17T14:31:52;2.13;;;2.13;;
12228;SDS011;6177;52.402;9.800;2023-08-17T14:34:43;2.42;;;2.22;;
12228;SDS011;6177;52.402;9.800;2023-08-17T14:37:34;2.30;;;2.20;;
12228;SDS011;6177;52.402;9.800;2023-08-17T14:40:25;2.60;;;2.40;;
12228;SDS011;6177;52.402;9.800;2023-08-17T14:43:16;2.40;;;2.30;;
12228;SDS011;6177;52.402;9.800;2023-08-17T14:46:07;3.08;;;2.88;;
12228;SDS011;6177;52.402;9.800;2023-08-17T14:48:58;2.78;;;2.67;;
12228;SDS011;6177;52.402;9.800;2023-08-17T14:51:49;2.72;;;2.53;;
12228;SDS011;6177;52.402;9.800;2023-08-17T14:54:39;2.42;;;2.25;;
12228;SDS011;6177;52.402;9.800;2023-08-17T14:57:30;3.30;;;3.10;;
12228;SDS011;6177;52.402;9.800;2023-08-17T15:00:21;3.42;;;3.13;;
12228;SDS011;6177;52.402;9.800;2023-08-17T15:03:12;3.47;;;3.08;;
12228;SDS011;6177;52.402;9.800;2023-08-17T15:06:03;3.42;;;3.22;;
12228;SDS011;6177;52.402;9.800;2023-08-17T15:08:54;2.90;;;2.55;;
12228;SDS011;6177;52.402;9.800;2023-08-17T15:11:45;3.70;;;3.40;;
12228;SDS011;6177;52.402;9.800;2023-08-17T15:14:36;4.43;;;3.20;;
12228;SDS011;6177;52.402;9.800;2023-08-17T15:17:27;4.72;;;3.25;;
12228;SDS011;6177;52.402;9.800;2023-08-17T15:20:18;4.47;;;3.55;;
12228;SDS011;6177;52.402;9.800;2023-08-17T15:23:09;3.40;;;3.20;;
12228;SDS011;6177;52.402;9.800;2023-08-17T15:26:00;4.50;;;3.58;;
12228;SDS011;6177;52.402;9.800;2023-08-17T15:28:51;3.80;;;3.50;;
12228;SDS011;6177;52.402;9.800;2023-08-17T15:31:42;5.18;;;3.90;;
12228;SDS011;6177;52.402;9.800;2023-08-17T15:34:33;4.45;;;4.05;;
12228;SDS011;6177;52.402;9.800;2023-08-17T15:37:24;4.93;;;4.53;;
12228;SDS011;6177;52.402;9.800;2023-08-17T15:40:15;3.67;;;3.47;;
12228;SDS011;6177;52.402;9.800;2023-08-17T15:43:06;4.35;;;4.00;;
12228;SDS011;6177;52.402;9.800;2023-08-17T15:45:57;4.35;;;4.07;;
12228;SDS011;6177;52.402;9.800;2023-08-17T15:48:48;4.30;;;3.90;;
12228;SDS011;6177;52.402;9.800;2023-08-17T15:51:39;3.30;;;3.03;;
12228;SDS011;6177;52.402;9.800;2023-08-17T15:54:30;4.88;;;4.15;;
12228;SDS011;6177;52.402;9.800;2023-08-17T15:57:20;4.50;;;3.72;;
12228;SDS011;6177;52.402;9.800;2023-08-17T16:00:11;4.80;;;4.32;;
12228;SDS011;6177;52.402;9.800;2023-08-17T16:03:02;5.30;;;4.40;;
12228;SDS011;6177;52.402;9.800;2023-08-17T16:05:53;4.38;;;3.97;;
12228;SDS011;6177;52.402;9.800;2023-08-17T16:08:44;4.95;;;3.63;;
12228;SDS011;6177;52.402;9.800;2023-08-17T16:11:35;5.68;;;5.15;;
12228;SDS011;6177;52.402;9.800;2023-08-17T16:14:26;5.05;;;4.40;;
12228;SDS011;6177;52.402;9.800;2023-08-17T16:17:17;5.90;;;5.40;;
12228;SDS011;6177;52.402;9.800;2023-08-17T16:20:08;3.47;;;3.28;;
12228;SDS011;6177;52.402;9.800;2023-08-17T16:23:00;3.80;;;3.50;;
12228;SDS011;6177;52.402;9.800;2023-08-17T16:25:51;3.50;;;3.20;;
12228;SDS011;6177;52.402;9.800;2023-08-17T16:28:42;4.35;;;3.95;;
12228;SDS011;6177;52.402;9.800;2023-08-17T16:31:34;4.50;;;3.75;;
12228;SDS011;6177;52.402;9.800;2023-08-17T16:34:25;4.15;;;3.83;;
12228;SDS011;6177;52.402;9.800;2023-08-17T16:37:16;4.63;;;3.60;;
12228;SDS011;6177;52.402;9.800;2023-08-17T16:40:08;5.70;;;4.47;;
12228;SDS011;6177;52.402;9.800;2023-08-17T16:42:59;3.75;;;3.38;;
12228;SDS011;6177;52.402;9.800;2023-08-17T16:45:50;4.30;;;3.83;;
12228;SDS011;6177;52.402;9.800;2023-08-17T16:48:41;5.63;;;3.90;;
12228;SDS011;6177;52.402;9.800;2023-08-17T16:51:32;4.43;;;3.85;;
12228;SDS011;6177;52.402;9.800;2023-08-17T16:54:23;6.38;;;4.43;;
12228;SDS011;6177;52.402;9.800;2023-08-17T16:57:14;3.72;;;3.42;;
12228;SDS011;6177;52.402;9.800;2023-08-17T17:00:05;5.47;;;4.30;;
12228;SDS011;6177;52.402;9.800;2023-08-17T17:02:58;6.20;;;4.28;;
12228;SDS011;6177;52.402;9.800;2023-08-17T17:05:49;5.30;;;4.10;;
12228;SDS011;6177;52.402;9.800;2023-08-17T17:08:40;6.18;;;5.25;;
12228;SDS011;6177;52.402;9.800;2023-08-17T17:11:31;6.15;;;4.60;;
12228;SDS011;6177;52.402;9.800;2023-08-17T17:14:22;6.60;;;4.60;;
12228;SDS011;6177;52.402;9.800;2023-08-17T17:17:13;5.32;;;4.82;;
12228;SDS011;6177;52.402;9.800;2023-08-17T17:20:04;6.43;;;4.68;;
12228;SDS011;6177;52.402;9.800;2023-08-17T17:22:55;5.60;;;3.95;;
12228;SDS011;6177;52.402;9.800;2023-08-17T17:25:46;4.30;;;3.90;;
12228;SDS011;6177;52.402;9.800;2023-08-17T17:28:37;4.32;;;3.92;;
12228;SDS011;6177;52.402;9.800;2023-08-17T17:31:28;5.00;;;4.68;;
12228;SDS011;6177;52.402;9.800;2023-08-17T17:34:19;5.65;;;4.05;;
12228;SDS011;6177;52.402;9.800;2023-08-17T17:37:10;3.72;;;3.45;;
12228;SDS011;6177;52.402;9.800;2023-08-17T17:40:01;4.85;;;3.88;;
12228;SDS011;6177;52.402;9.800;2023-08-17T17:42:52;3.35;;;3.15;;
12228;SDS011;6177;52.402;9.800;2023-08-17T17:45:42;4.82;;;4.53;;
12228;SDS011;6177;52.402;9.800;2023-08-17T17:48:33;4.22;;;3.90;;
12228;SDS011;6177;52.402;9.800;2023-08-17T17:51:24;6.18;;;3.92;;